Time;durP1;ratioP1;P1;durP2;ratioP2;P2;SDS_P1;SDS_P2;PMS_P1;PMS_P2;Temp;Humidity;BMP_temperature;BMP_pressure;BME280_temperature;BME280_humidity;BME280_pressure;Samples;Min_cycle;Max_cycle;Signal;HPM_P1;HPM_P2
2023/03/15 00:01:22;;;;;;;;;20.50;19.25;;;;;9.30;53.89;101192.28;5002887;28;45420;-65
2023/03/15 00:03:48;;;;;;;;;18.75;16.75;;;;;9.24;53.93;101187.91;5008038;28;45310;-65
2023/03/15 00:06:13;;;;;;;;;19.50;19.50;;;;;9.25;53.83;101203.66;5033436;28;45434;-65
2023/03/15 00:08:39;;;;;;;;;22.75;21.75;;;;;9.19;53.98;101189.69;5018039;28;46285;-65
2023/03/15 00:11:05;;;;;;;;;19.25;17.50;;;;;9.17;53.69;101197.56;5017976;28;45404;-65
2023/03/15 00:13:32;;;;;;;;;23.75;20.75;;;;;9.13;54.23;101195.78;5018280;28;45241;-65
2023/03/15 00:15:59;;;;;;;;;26.75;23.25;;;;;9.09;54.14;101196.66;5017964;28;45452;-67
2023/03/15 00:18:26;;;;;;;;;21.25;20.25;;;;;9.06;54.05;101191.44;5017752;28;45482;-65
2023/03/15 00:20:51;;;;;;;;;21.50;20.25;;;;;9.02;54.05;101182.72;5017872;28;45303;-65
2023/03/15 00:23:17;;;;;;;;;21.75;21.00;;;;;9.01;54.06;101199.31;5018045;28;45452;-65
2023/03/15 00:25:44;;;;;;;;;23.00;22.25;;;;;9.00;53.93;101188.81;5017820;28;45273;-65
2023/03/15 00:28:10;;;;;;;;;20.25;19.00;;;;;8.99;54.02;101192.31;5033253;28;45940;-65
2023/03/15 00:30:35;;;;;;;;;20.75;17.00;;;;;8.96;54.00;101198.44;5033240;28;45279;-65
2023/03/15 00:33:01;;;;;;;;;24.00;22.00;;;;;8.95;54.03;101199.31;5017766;28;45174;-65
2023/03/15 00:35:26;;;;;;;;;19.50;18.00;;;;;8.93;54.27;101193.19;5017755;28;45457;-65
2023/03/15 00:37:55;;;;;;;;;18.50;18.50;;;;;8.93;54.05;101195.78;5032893;28;45322;-66
2023/03/15 00:40:22;;;;;;;;;18.50;18.00;;;;;8.91;54.18;101203.66;5017555;28;45396;-65
2023/03/15 00:42:50;;;;;;;;;25.00;21.25;;;;;8.89;53.85;101194.94;5016711;28;45357;-65
2023/03/15 00:45:20;;;;;;;;;22.00;21.00;;;;;8.88;54.08;101198.44;5017615;28;45664;-65
2023/03/15 00:47:51;;;;;;;;;18.50;16.75;;;;;8.86;54.07;101200.19;5017350;28;46276;-65
2023/03/15 00:50:18;;;;;;;;;24.00;20.50;;;;;8.84;53.83;101198.44;5000669;28;45229;-65
2023/03/15 00:52:43;;;;;;;;;24.25;21.25;;;;;8.84;54.35;101208.91;5001537;28;45284;-65
2023/03/15 00:55:14;;;;;;;;;19.75;16.75;;;;;8.84;54.20;101201.06;5017341;28;45255;-65
2023/03/15 00:57:40;;;;;;;;;25.50;22.00;;;;;8.82;54.07;101208.91;5017712;28;46286;-68
2023/03/15 01:00:09;;;;;;;;;21.75;19.25;;;;;8.81;54.26;101208.94;5027207;28;46095;-67
2023/03/15 01:02:36;;;;;;;;;28.50;21.25;;;;;8.80;54.25;101201.94;5010085;28;45260;-65
2023/03/15 01:05:02;;;;;;;;;24.00;23.75;;;;;8.79;54.21;101206.28;5016697;28;45454;-65
2023/03/15 01:07:27;;;;;;;;;24.00;20.75;;;;;8.77;54.09;101211.53;5017449;28;45321;-65
2023/03/15 01:09:52;;;;;;;;;23.75;23.75;;;;;8.74;54.10;101219.41;5017168;28;45358;-65
2023/03/15 01:12:18;;;;;;;;;23.75;22.25;;;;;8.72;54.17;101222.91;5017290;28;49991;-65
2023/03/15 01:14:43;;;;;;;;;21.50;21.00;;;;;8.68;53.98;101227.25;5017099;28;46850;-65
2023/03/15 01:17:08;;;;;;;;;29.25;26.25;;;;;8.61;54.21;101230.72;5017234;28;46138;-65
2023/03/15 01:19:34;;;;;;;;;22.75;22.75;;;;;8.54;54.04;101226.34;5016841;28;45238;-66
2023/03/15 01:21:59;;;;;;;;;22.75;18.50;;;;;8.47;54.57;101230.69;5017601;28;45297;-65
2023/03/15 01:24:24;;;;;;;;;30.25;29.75;;;;;8.40;54.24;101235.03;5016831;28;49812;-65
2023/03/15 01:26:50;;;;;;;;;24.50;22.50;;;;;8.27;54.62;101222.75;5016954;28;46117;-65
2023/03/15 01:29:16;;;;;;;;;24.75;24.25;;;;;8.29;54.45;101234.97;5016818;28;47221;-66
2023/03/15 01:31:42;;;;;;;;;28.00;23.50;;;;;8.23;54.46;101231.47;5017374;28;45315;-65
2023/03/15 01:34:08;;;;;;;;;23.75;22.00;;;;;8.19;54.37;101230.59;5016736;28;45442;-65
2023/03/15 01:36:34;;;;;;;;;25.00;22.00;;;;;8.14;54.65;101238.41;5016969;28;45258;-65
2023/03/15 01:38:59;;;;;;;;;26.50;20.50;;;;;8.09;54.62;101232.28;5016601;28;45302;-65
2023/03/15 01:41:26;;;;;;;;;25.00;21.75;;;;;8.07;54.38;101230.53;5017178;28;45285;-65
2023/03/15 01:43:52;;;;;;;;;20.75;18.25;;;;;8.01;54.41;101230.50;5016824;28;45464;-65
2023/03/15 01:46:23;;;;;;;;;20.50;17.50;;;;;8.02;54.41;101242.72;5016952;28;46206;-65
2023/03/15 01:49:21;;;;;;;;;23.75;21.50;;;;;7.98;54.47;101231.38;5014831;28;45407;-65
2023/03/15 01:51:56;;;;;;;;;20.75;20.25;;;;;7.96;54.38;101236.63;5000890;28;45393;-65
2023/03/15 01:54:40;;;;;;;;;19.75;19.75;;;;;7.95;54.37;101241.84;5016659;28;45475;-66
2023/03/15 01:57:11;;;;;;;;;17.50;17.50;;;;;7.91;54.54;101240.94;5016719;28;45286;-65
2023/03/15 01:59:43;;;;;;;;;20.00;18.75;;;;;7.88;54.53;101240.91;5014955;28;45242;-65
2023/03/15 02:02:08;;;;;;;;;21.25;20.00;;;;;7.84;54.35;101244.41;4997240;28;45313;-65
2023/03/15 02:04:45;;;;;;;;;20.75;18.00;;;;;7.83;54.51;101241.78;5012371;28;45339;-65
2023/03/15 02:07:12;;;;;;;;;19.25;18.00;;;;;7.81;54.63;101245.25;5016582;28;46305;-65
2023/03/15 02:09:51;;;;;;;;;24.25;21.25;;;;;7.77;54.45;101240.88;5016300;28;45437;-65
2023/03/15 02:12:17;;;;;;;;;22.25;20.75;;;;;7.80;54.46;101240.03;5015615;28;45348;-65
2023/03/15 02:14:44;;;;;;;;;23.00;21.00;;;;;7.75;54.65;101234.75;5016539;28;45533;-65
2023/03/15 02:17:10;;;;;;;;;22.00;19.50;;;;;7.75;54.65;101236.50;5017524;28;45345;-65
2023/03/15 02:20:11;;;;;;;;;17.25;15.00;;;;;7.73;54.75;101233.88;5019201;28;45230;-65
2023/03/15 02:22:49;;;;;;;;;18.50;18.50;;;;;7.69;54.46;101231.25;4997454;28;45365;-65
2023/03/15 02:25:45;;;;;;;;;26.75;20.00;;;;;7.68;54.60;101230.34;5016395;28;45476;-65
2023/03/15 02:28:14;;;;;;;;;21.25;14.25;;;;;7.64;54.80;101228.59;5019354;28;46269;-65
2023/03/15 02:30:40;;;;;;;;;16.50;16.50;;;;;7.65;54.85;101222.50;5019272;28;45283;-65
2023/03/15 02:33:29;;;;;;;;;20.75;19.50;;;;;7.65;54.54;101232.97;5019351;28;45480;-65
2023/03/15 02:36:04;;;;;;;;;16.50;13.75;;;;;7.65;54.67;101227.72;5019272;28;45256;-65
2023/03/15 02:38:30;;;;;;;;;17.00;13.00;;;;;7.62;54.79;101232.94;5019184;28;45370;-65
2023/03/15 02:40:55;;;;;;;;;13.75;10.50;;;;;7.60;54.76;101221.59;5018957;28;45433;-65
2023/03/15 02:43:26;;;;;;;;;14.25;11.00;;;;;7.59;54.58;101227.69;5019319;28;45253;-65
2023/03/15 02:45:52;;;;;;;;;18.25;17.25;;;;;7.56;54.79;101230.28;5019412;28;45452;-65
2023/03/15 02:48:18;;;;;;;;;14.25;12.50;;;;;7.58;54.75;101231.16;5018718;28;45398;-65
2023/03/15 02:50:43;;;;;;;;;16.50;12.75;;;;;7.57;54.68;101229.41;5002032;28;45301;-65
2023/03/15 02:53:09;;;;;;;;;15.25;14.00;;;;;7.55;54.84;101215.47;5014713;28;45242;-65
2023/03/15 02:55:35;;;;;;;;;16.75;14.25;;;;;7.53;54.73;101225.03;5017742;28;45650;-67
2023/03/15 02:58:01;;;;;;;;;12.75;11.75;;;;;7.52;54.66;101231.13;5018768;28;47057;-65
2023/03/15 03:00:27;;;;;;;;;10.25;9.25;;;;;7.49;54.74;101229.38;5010861;28;45384;-65
2023/03/15 03:02:53;;;;;;;;;18.50;14.50;;;;;7.50;54.92;101225.91;5000819;28;45265;-65
2023/03/15 03:05:18;;;;;;;;;14.50;14.50;;;;;7.49;54.66;101240.69;5017853;28;45477;-65
2023/03/15 03:07:44;;;;;;;;;12.00;12.00;;;;;7.47;54.76;101239.81;5018711;28;45338;-65
2023/03/15 03:10:13;;;;;;;;;15.75;13.25;;;;;7.47;54.73;101242.44;5018802;28;45163;-65
2023/03/15 03:12:38;;;;;;;;;11.25;11.25;;;;;7.45;54.66;101251.16;5019166;28;45325;-65
2023/03/15 03:15:04;;;;;;;;;15.25;12.75;;;;;7.42;54.83;101251.09;5018861;28;45487;-65
2023/03/15 03:17:29;;;;;;;;;14.75;12.50;;;;;7.42;54.79;101256.34;5018452;28;46213;-65
2023/03/15 03:19:56;;;;;;;;;14.25;13.25;;;;;7.40;54.88;101260.69;5018742;28;45351;-65
2023/03/15 03:22:24;;;;;;;;;11.75;10.75;;;;;7.38;54.58;101259.81;5018872;28;45258;-65
2023/03/15 03:24:50;;;;;;;;;12.50;11.75;;;;;7.37;54.85;101266.78;5018694;28;45249;-65
2023/03/15 03:27:17;;;;;;;;;14.25;12.00;;;;;7.34;54.83;101261.50;5018379;28;45499;-65
2023/03/15 03:29:43;;;;;;;;;14.25;11.00;;;;;7.32;54.85;101258.03;5018497;28;45280;-65
2023/03/15 03:32:09;;;;;;;;;18.00;13.50;;;;;7.35;54.83;101262.41;5017409;28;45308;-64
2023/03/15 03:34:35;;;;;;;;;13.50;12.00;;;;;7.29;54.90;101253.63;5018454;28;45348;-64
2023/03/15 03:37:00;;;;;;;;;13.75;11.00;;;;;7.34;54.82;101255.41;5018546;28;46040;-65
2023/03/15 03:39:26;;;;;;;;;10.50;9.25;;;;;7.31;54.77;101261.50;5018551;28;45337;-65
2023/03/15 03:41:51;;;;;;;;;15.00;11.75;;;;;7.29;55.03;101264.09;5018596;28;45277;-65
2023/03/15 03:44:18;;;;;;;;;11.00;11.00;;;;;7.27;54.96;101257.09;5034047;28;45231;-65
2023/03/15 03:46:43;;;;;;;;;14.75;13.50;;;;;7.26;54.84;101264.06;5017218;28;48157;-67
2023/03/15 03:49:09;;;;;;;;;11.75;10.75;;;;;7.27;54.79;101264.94;5013952;28;45440;-65
2023/03/15 03:51:35;;;;;;;;;14.00;11.75;;;;;7.29;54.67;101271.06;5000903;28;45441;-65
2023/03/15 03:54:01;;;;;;;;;11.25;11.25;;;;;7.28;54.99;101261.47;5018024;28;45543;-65
2023/03/15 03:56:26;;;;;;;;;12.00;12.00;;;;;7.28;54.63;101266.69;5018130;28;45427;-65
2023/03/15 03:58:51;;;;;;;;;18.00;11.75;;;;;7.29;54.80;101271.06;5018298;28;45239;-65
2023/03/15 04:01:17;;;;;;;;;11.75;11.25;;;;;7.28;55.03;101269.31;5004997;28;45347;-65
2023/03/15 04:03:42;;;;;;;;;11.25;11.00;;;;;7.28;54.77;101266.69;5018157;28;45467;-65
2023/03/15 04:06:08;;;;;;;;;14.25;12.50;;;;;7.29;54.92;101274.53;5018090;28;46139;-65
2023/03/15 04:08:33;;;;;;;;;13.25;13.25;;;;;7.27;54.90;101273.66;5018308;28;45302;-67
2023/03/15 04:10:58;;;;;;;;;11.50;11.50;;;;;7.26;54.88;101284.13;5018058;28;45339;-65
2023/03/15 04:13:24;;;;;;;;;10.00;10.00;;;;;7.28;55.02;101285.00;5018166;28;45268;-65
2023/03/15 04:15:50;;;;;;;;;14.50;14.50;;;;;7.28;54.82;101290.22;5017942;28;46449;-65
2023/03/15 04:18:16;;;;;;;;;16.25;16.25;;;;;7.27;54.76;101293.69;5017981;28;45251;-65
2023/03/15 04:20:45;;;;;;;;;17.00;14.25;;;;;7.26;54.93;101290.22;5018005;28;45347;-65
2023/03/15 04:23:12;;;;;;;;;19.25;14.50;;;;;7.26;54.90;101281.50;5018110;28;45382;-66
2023/03/15 04:25:38;;;;;;;;;13.50;12.75;;;;;7.25;54.97;101280.63;5017716;28;46318;-65
2023/03/15 04:28:03;;;;;;;;;16.00;12.50;;;;;7.24;54.92;101281.47;5017953;28;45356;-65
2023/03/15 04:30:29;;;;;;;;;13.25;12.00;;;;;7.24;54.98;101275.38;5017938;28;45302;-65
2023/03/15 04:32:57;;;;;;;;;18.50;17.50;;;;;7.20;55.11;101274.47;5017851;28;45452;-65
2023/03/15 04:35:24;;;;;;;;;32.75;20.75;;;;;7.21;55.05;101272.72;5017657;28;46181;-65
2023/03/15 04:37:50;;;;;;;;;12.00;11.25;;;;;7.20;55.66;101278.84;5018159;28;45352;-65
2023/03/15 04:40:16;;;;;;;;;19.75;16.25;;;;;7.18;55.01;101272.72;5016777;28;45329;-65
2023/03/15 04:42:41;;;;;;;;;14.00;12.00;;;;;7.16;54.93;101270.09;5017626;28;49880;-66
2023/03/15 04:45:07;;;;;;;;;17.50;14.75;;;;;7.15;54.93;101266.59;5017482;28;46009;-66
2023/03/15 04:47:32;;;;;;;;;13.00;11.00;;;;;7.13;55.04;101273.56;5017333;28;45414;-66
2023/03/15 04:49:57;;;;;;;;;14.25;14.25;;;;;7.11;54.96;101275.28;5007017;28;45429;-66
2023/03/15 04:52:23;;;;;;;;;20.00;18.00;;;;;7.07;55.01;101286.56;5005431;28;48373;-67
2023/03/15 04:54:48;;;;;;;;;7.50;7.00;;;;;7.06;54.99;101286.56;5017531;28;45361;-66
2023/03/15 04:57:13;;;;;;;;;12.00;10.50;;;;;7.04;55.21;101283.91;5017701;28;45229;-66
2023/03/15 04:59:38;;;;;;;;;19.50;14.00;;;;;7.02;55.09;101290.00;5015575;28;49780;-66
2023/03/15 05:02:04;;;;;;;;;16.50;15.25;;;;;6.98;55.31;101291.69;4997968;28;45286;-66
2023/03/15 05:04:29;;;;;;;;;12.25;12.25;;;;;6.95;55.20;101282.09;5012504;28;45396;-66
2023/03/15 05:06:54;;;;;;;;;12.25;11.25;;;;;6.93;55.14;101288.16;5017132;28;57011;-66
2023/03/15 05:09:20;;;;;;;;;14.50;12.75;;;;;6.93;55.03;101293.41;5017364;28;45434;-66
2023/03/15 05:11:46;;;;;;;;;14.00;11.25;;;;;6.90;55.21;101296.00;5017519;28;45523;-66
2023/03/15 05:14:12;;;;;;;;;14.00;14.00;;;;;6.90;55.23;101306.44;5017194;28;46281;-66
2023/03/15 05:16:37;;;;;;;;;15.25;15.00;;;;;6.89;55.22;101309.91;5032905;28;46108;-66
2023/03/15 05:19:03;;;;;;;;;11.00;10.00;;;;;6.85;55.17;101310.75;5017058;28;45485;-66
2023/03/15 05:21:28;;;;;;;;;12.50;11.00;;;;;6.81;55.36;101310.69;5017545;28;45141;-66
2023/03/15 05:23:53;;;;;;;;;16.00;14.50;;;;;6.79;55.18;101307.22;5017210;28;45731;-66
2023/03/15 05:26:19;;;;;;;;;14.00;11.25;;;;;6.71;55.29;101295.78;5015886;28;50905;-66
2023/03/15 05:28:44;;;;;;;;;13.00;10.00;;;;;6.72;55.26;101305.38;5017182;28;45165;-66
2023/03/15 05:31:09;;;;;;;;;14.50;11.75;;;;;6.71;55.11;101303.63;5017293;28;45429;-66
2023/03/15 05:33:35;;;;;;;;;14.25;13.75;;;;;6.69;55.03;101294.88;5016904;28;45285;-66
2023/03/15 05:36:00;;;;;;;;;13.25;10.75;;;;;6.69;55.22;101294.03;5017081;28;45307;-66
2023/03/15 05:38:26;;;;;;;;;15.00;11.00;;;;;6.67;55.28;101296.63;5016999;28;45387;-66
2023/03/15 05:40:52;;;;;;;;;13.25;11.00;;;;;6.68;55.08;101306.22;5016913;28;45547;-66
2023/03/15 05:43:17;;;;;;;;;11.00;11.00;;;;;6.68;55.11;101306.22;5016815;28;46550;-66
2023/03/15 05:45:43;;;;;;;;;14.00;13.25;;;;;6.67;55.10;101305.34;5016940;28;45315;-66
2023/03/15 05:48:09;;;;;;;;;21.00;18.75;;;;;6.63;55.23;101300.94;5016712;28;45393;-66
2023/03/15 05:50:34;;;;;;;;;12.00;12.00;;;;;6.68;55.05;101314.06;5001323;28;45335;-66
2023/03/15 05:52:59;;;;;;;;;11.00;10.75;;;;;6.67;55.29;101312.31;5013967;28;45599;-67
2023/03/15 05:55:25;;;;;;;;;12.00;9.75;;;;;6.67;55.13;101320.13;5018667;28;45339;-67
2023/03/15 05:57:50;;;;;;;;;15.25;14.00;;;;;6.65;55.19;101322.75;5019833;28;45209;-68
2023/03/15 06:00:16;;;;;;;;;14.75;12.00;;;;;6.61;55.30;101314.84;5028231;28;45258;-66
2023/03/15 06:02:43;;;;;;;;;12.50;12.00;;;;;6.62;55.34;101317.47;5000334;28;46514;-66
2023/03/15 06:05:09;;;;;;;;;12.00;11.50;;;;;6.61;55.15;101320.06;5019700;28;45453;-66
2023/03/15 06:07:34;;;;;;;;;17.25;15.25;;;;;6.57;55.28;101323.50;5019764;28;45244;-66
2023/03/15 06:10:00;;;;;;;;;13.00;12.25;;;;;6.56;55.41;101326.97;5019211;28;45555;-66
2023/03/15 06:12:25;;;;;;;;;11.00;11.00;;;;;6.57;55.31;101333.97;5019487;28;46873;-66
2023/03/15 06:14:51;;;;;;;;;16.75;13.75;;;;;6.56;55.35;101330.44;5019646;28;45329;-66
2023/03/15 06:17:16;;;;;;;;;15.50;13.50;;;;;6.56;55.28;101334.81;5019629;28;45321;-66
2023/03/15 06:19:41;;;;;;;;;12.50;11.25;;;;;6.53;55.49;101326.91;5019444;28;45394;-66
2023/03/15 06:22:07;;;;;;;;;10.75;10.75;;;;;6.54;55.42;101333.91;5034931;28;46966;-66
2023/03/15 06:24:33;;;;;;;;;13.25;11.00;;;;;6.54;55.37;101328.69;5019386;28;45400;-66
2023/03/15 06:26:58;;;;;;;;;11.00;8.50;;;;;6.53;55.53;101332.16;5019630;28;45302;-66
2023/03/15 06:29:24;;;;;;;;;18.00;13.75;;;;;6.48;55.58;101330.38;5019447;28;45333;-66
2023/03/15 06:31:49;;;;;;;;;15.25;11.50;;;;;6.50;55.56;101338.22;5019203;28;46169;-66
2023/03/15 06:34:15;;;;;;;;;7.75;7.75;;;;;6.50;55.39;101341.72;5034511;28;45314;-66
2023/03/15 06:36:44;;;;;;;;;10.75;10.25;;;;;6.49;55.50;101337.34;5019579;28;45174;-66
2023/03/15 06:39:11;;;;;;;;;15.50;11.75;;;;;6.48;55.38;101340.81;5019117;28;45503;-66
2023/03/15 06:41:38;;;;;;;;;15.50;13.00;;;;;6.45;55.58;101343.41;5019150;28;46240;-66
2023/03/15 06:44:03;;;;;;;;;19.50;10.75;;;;;6.44;55.54;101344.25;5019310;28;45465;-66
2023/03/15 06:46:29;;;;;;;;;10.50;10.50;;;;;6.44;55.45;101348.56;5034567;28;45394;-67
2023/03/15 06:48:54;;;;;;;;;14.50;11.50;;;;;6.42;55.45;101343.34;5016413;28;45333;-66
2023/03/15 06:51:20;;;;;;;;;15.75;13.75;;;;;6.43;55.57;101342.50;4999822;28;46452;-66
2023/03/15 06:53:45;;;;;;;;;11.50;11.25;;;;;6.41;55.66;101340.72;5019160;28;45239;-66
2023/03/15 06:56:10;;;;;;;;;19.00;14.50;;;;;6.44;55.19;101357.31;5019117;28;45404;-66
2023/03/15 06:58:36;;;;;;;;;14.75;12.75;;;;;6.43;55.42;101347.72;5019164;28;45401;-66
2023/03/15 07:01:02;;;;;;;;;15.50;15.00;;;;;6.42;55.50;101351.19;5005965;28;45335;-67
2023/03/15 07:03:27;;;;;;;;;16.50;14.00;;;;;6.43;55.66;101355.53;5005284;28;45304;-66
2023/03/15 07:05:53;;;;;;;;;16.75;12.50;;;;;6.46;55.64;101341.66;5019209;28;45274;-67
2023/03/15 07:08:20;;;;;;;;;15.75;11.75;;;;;6.46;55.46;101349.47;5019070;28;45531;-67
2023/03/15 07:10:47;;;;;;;;;15.50;12.00;;;;;6.48;55.65;101347.78;5018576;28;46312;-66
2023/03/15 07:13:13;;;;;;;;;14.75;12.00;;;;;6.48;55.73;101348.66;5018951;28;45379;-66
2023/03/15 07:15:38;;;;;;;;;12.00;10.50;;;;;6.53;55.70;101359.16;5017510;28;45511;-67
2023/03/15 07:18:03;;;;;;;;;11.00;11.00;;;;;6.55;55.71;101367.00;5018692;28;45536;-66
2023/03/15 07:20:30;;;;;;;;;19.00;14.25;;;;;6.55;55.84;101369.63;5018432;28;46443;-65
2023/03/15 07:22:56;;;;;;;;;12.00;11.00;;;;;6.58;56.30;101372.25;5018749;28;45337;-65
2023/03/15 07:25:22;;;;;;;;;13.00;11.25;;;;;6.57;55.71;101376.59;5018613;28;45266;-65
2023/03/15 07:27:49;;;;;;;;;15.00;13.25;;;;;6.59;55.69;101377.50;5017562;28;45189;-65
2023/03/15 07:30:15;;;;;;;;;12.75;11.25;;;;;6.59;55.66;101379.22;5018413;28;46126;-65
2023/03/15 07:32:41;;;;;;;;;16.00;12.00;;;;;6.58;55.79;101380.09;5018534;28;45519;-65
2023/03/15 07:35:06;;;;;;;;;16.75;15.75;;;;;6.54;55.83;101378.31;5018798;28;45338;-65
2023/03/15 07:37:32;;;;;;;;;15.00;12.50;;;;;6.54;55.62;101387.03;5018656;28;45460;-65
2023/03/15 07:39:59;;;;;;;;;13.00;11.25;;;;;6.53;55.80;101387.88;5017137;28;46176;-64
2023/03/15 07:42:24;;;;;;;;;19.25;15.25;;;;;6.53;55.72;101386.97;5018500;28;45255;-65
2023/03/15 07:44:49;;;;;;;;;18.50;14.75;;;;;6.54;55.82;101399.19;5018558;28;45479;-66
2023/03/15 07:47:15;;;;;;;;;16.75;15.00;;;;;6.54;55.86;101404.41;5018097;28;45611;-66
2023/03/15 07:49:40;;;;;;;;;19.50;13.50;;;;;6.56;55.87;101397.50;5009640;28;55230;-64
2023/03/15 07:52:06;;;;;;;;;19.75;18.00;;;;;6.61;55.93;101407.13;4992261;28;45174;-64
2023/03/15 07:54:33;;;;;;;;;19.00;16.75;;;;;6.64;55.94;101401.06;5018492;28;45411;-64
2023/03/15 07:56:59;;;;;;;;;22.50;19.00;;;;;6.70;56.04;101406.34;5018442;28;45382;-65
2023/03/15 07:59:24;;;;;;;;;19.00;17.25;;;;;6.72;56.02;101404.66;5018026;28;46307;-65
2023/03/15 08:01:50;;;;;;;;;20.00;17.50;;;;;6.77;55.89;101408.19;4998669;28;45163;-65
2023/03/15 08:04:15;;;;;;;;;19.75;16.75;;;;;6.79;55.96;101411.72;5011637;28;45602;-63
2023/03/15 08:06:40;;;;;;;;;20.50;18.50;;;;;6.83;56.15;101417.84;5018344;28;45352;-63
2023/03/15 08:09:06;;;;;;;;;20.00;14.25;;;;;6.85;56.15;101423.09;5017912;28;48160;-62
2023/03/15 08:11:32;;;;;;;;;17.50;14.00;;;;;6.82;56.13;101413.50;5018095;28;45398;-64
2023/03/15 08:13:57;;;;;;;;;20.75;16.75;;;;;6.92;55.92;101419.72;5007323;27;45180;-64
2023/03/15 08:16:22;;;;;;;;;20.75;17.50;;;;;6.95;56.30;101433.66;5003483;28;45531;-63
2023/03/15 08:18:48;;;;;;;;;18.50;15.75;;;;;6.99;56.07;101431.97;5004626;28;58347;-62
2023/03/15 08:21:13;;;;;;;;;18.25;17.00;;;;;6.99;56.20;101426.72;5003674;28;45321;-62
2023/03/15 08:23:39;;;;;;;;;17.00;16.00;;;;;7.05;56.28;101434.66;5000987;28;45329;-61
2023/03/15 08:26:04;;;;;;;;;13.25;11.50;;;;;7.09;56.20;101430.34;5016407;28;45434;-63
2023/03/15 08:28:30;;;;;;;;;21.00;17.50;;;;;7.12;56.38;101433.88;5016315;28;46341;-62
2023/03/15 08:30:55;;;;;;;;;20.25;13.75;;;;;7.15;56.20;101438.25;5010715;28;45494;-62
2023/03/15 08:33:21;;;;;;;;;18.25;17.00;;;;;7.21;56.30;101440.03;5009825;28;45480;-61
2023/03/15 08:35:53;;;;;;;;;19.00;13.00;;;;;7.23;56.40;101433.09;5017795;28;45389;-62
2023/03/15 08:38:19;;;;;;;;;13.50;13.50;;;;;7.28;56.52;101434.03;5017835;28;45405;-62
2023/03/15 08:40:45;;;;;;;;;15.00;14.00;;;;;7.33;56.40;101429.72;5017450;28;45482;-65
2023/03/15 08:43:11;;;;;;;;;17.75;14.25;;;;;7.38;56.53;101428.03;5017776;28;45354;-65
2023/03/15 08:45:36;;;;;;;;;14.75;14.00;;;;;7.41;56.41;101430.69;5017568;28;45293;-65
2023/03/15 08:48:01;;;;;;;;;19.50;13.25;;;;;7.48;56.56;101435.13;5010098;28;46375;-64
2023/03/15 08:50:30;;;;;;;;;14.50;12.75;;;;;7.55;56.63;101443.03;4997667;28;45163;-65
2023/03/15 08:52:55;;;;;;;;;16.25;12.50;;;;;7.60;56.44;101441.31;5011326;28;45442;-64
2023/03/15 08:55:21;;;;;;;;;14.00;11.75;;;;;7.65;56.78;101444.84;5017303;28;45279;-65
2023/03/15 08:57:46;;;;;;;;;13.00;11.50;;;;;7.71;56.81;101438.78;5017012;28;45352;-64
2023/03/15 09:00:16;;;;;;;;;17.00;14.25;;;;;7.79;56.63;101448.47;5011058;28;45258;-65
2023/03/15 09:02:42;;;;;;;;;14.50;13.00;;;;;7.84;56.54;101455.50;4997791;28;45445;-64
2023/03/15 09:05:10;;;;;;;;;14.00;12.75;;;;;7.93;56.57;101455.56;5017324;28;45525;-66
2023/03/15 09:07:36;;;;;;;;;15.50;13.25;;;;;7.97;56.85;101457.31;5017276;28;45460;-65
2023/03/15 09:10:03;;;;;;;;;16.25;13.50;;;;;8.05;56.89;101463.50;5017296;28;45339;-64
2023/03/15 09:12:29;;;;;;;;;12.50;9.50;;;;;8.12;56.98;101454.81;5017539;28;45323;-64
2023/03/15 09:14:54;;;;;;;;;13.75;13.75;;;;;8.21;56.85;101468.84;5007123;27;45297;-64
2023/03/15 09:17:20;;;;;;;;;15.75;15.00;;;;;8.27;57.00;101461.03;5002634;28;45418;-63
2023/03/15 09:19:45;;;;;;;;;14.50;12.75;;;;;8.38;57.01;101464.63;5015118;28;45358;-63
2023/03/15 09:22:11;;;;;;;;;16.25;14.75;;;;;8.48;56.89;101469.94;5009751;28;45440;-63
2023/03/15 09:24:36;;;;;;;;;13.00;12.25;;;;;8.57;56.99;101460.38;5003974;28;45169;-63
2023/03/15 09:27:02;;;;;;;;;21.50;14.50;;;;;8.66;57.14;101469.19;5016692;28;45235;-63
2023/03/15 09:29:27;;;;;;;;;16.75;13.75;;;;;8.74;56.98;101463.13;5017132;28;45248;-61
2023/03/15 09:31:53;;;;;;;;;17.00;14.00;;;;;8.82;57.34;101452.66;5013640;28;45219;-61
2023/03/15 09:34:19;;;;;;;;;9.25;9.25;;;;;8.96;57.05;101463.19;4990473;28;45320;-59
2023/03/15 09:36:44;;;;;;;;;20.50;15.25;;;;;9.05;57.16;101467.59;5016801;28;45845;-59
2023/03/15 09:39:10;;;;;;;;;15.75;14.75;;;;;9.17;57.50;101462.41;5016774;28;45430;-59
2023/03/15 09:41:41;;;;;;;;;14.75;13.00;;;;;9.29;57.29;101465.94;5017092;28;45435;-60
2023/03/15 09:44:54;;;;;;;;;15.25;15.00;;;;;9.42;57.21;101468.59;5016890;28;45243;-61
2023/03/15 09:47:44;;;;;;;;;16.50;14.00;;;;;9.57;57.62;101462.50;5031504;28;45541;-61
2023/03/15 09:50:21;;;;;;;;;14.75;14.00;;;;;9.70;57.42;101460.75;5003315;28;45245;-60
2023/03/15 09:52:56;;;;;;;;;20.75;16.00;;;;;9.86;57.51;101460.75;5009049;28;45392;-61
2023/03/15 09:55:24;;;;;;;;;16.00;13.50;;;;;9.99;57.63;101461.66;5016758;28;45284;-61
2023/03/15 09:58:00;;;;;;;;;17.25;14.00;;;;;10.13;57.74;101459.03;5016441;28;45400;-60
2023/03/15 10:00:30;;;;;;;;;18.50;14.00;;;;;10.28;57.78;101453.75;5008260;28;45205;-62
2023/03/15 10:03:02;;;;;;;;;11.25;10.00;;;;;10.42;57.66;101456.38;4998762;28;45672;-64
2023/03/15 10:05:40;;;;;;;;;16.25;10.50;;;;;10.57;57.69;101458.09;5016151;28;45367;-68
2023/03/15 10:08:11;;;;;;;;;14.75;11.00;;;;;10.67;57.56;101448.44;5015049;28;48694;-62
2023/03/15 10:10:45;;;;;;;;;13.75;13.25;;;;;10.82;57.77;101460.66;5016301;28;45243;-64
2023/03/15 10:13:29;;;;;;;;;12.75;10.50;;;;;10.95;57.79;101453.56;5015240;28;45519;-65
2023/03/15 10:16:09;;;;;;;;;12.50;12.50;;;;;11.06;57.57;101454.41;5030947;27;45527;-63
2023/03/15 10:19:00;;;;;;;;;11.25;11.25;;;;;11.18;57.40;101453.44;5015814;28;47125;-64
2023/03/15 10:21:36;;;;;;;;;11.50;9.75;;;;;11.28;57.66;101451.66;5015061;28;45283;-64
2023/03/15 10:24:04;;;;;;;;;11.50;11.50;;;;;11.40;57.52;101448.09;5007402;28;45312;-66
2023/03/15 10:26:35;;;;;;;;;16.75;11.00;;;;;11.49;57.30;101448.88;5016331;28;45361;-63
2023/03/15 10:29:08;;;;;;;;;14.00;9.25;;;;;11.60;57.44;101455.84;5015972;28;45170;-64
2023/03/15 10:31:38;;;;;;;;;9.75;6.75;;;;;11.71;57.45;101460.16;5016112;28;45397;-63
2023/03/15 10:34:04;;;;;;;;;10.00;9.75;;;;;11.80;56.95;101456.56;5015986;28;45294;-63
2023/03/15 10:36:29;;;;;;;;;11.75;8.00;;;;;11.89;57.31;101442.44;5016133;28;45624;-63
2023/03/15 10:38:56;;;;;;;;;15.50;13.75;;;;;11.97;57.37;101443.28;5017104;28;46132;-66
2023/03/15 10:41:42;;;;;;;;;17.00;14.50;;;;;12.11;57.26;101447.56;5019465;28;45336;-65
2023/03/15 10:44:22;;;;;;;;;9.75;8.00;;;;;12.20;57.33;101450.13;5017407;28;45398;-65
2023/03/15 10:47:02;;;;;;;;;9.25;7.00;;;;;12.29;57.47;101441.22;5019016;28;45472;-66
2023/03/15 10:49:42;;;;;;;;;11.25;9.00;;;;;12.36;57.31;101442.91;5011991;28;47076;-66
2023/03/15 10:52:33;;;;;;;;;7.75;7.00;;;;;12.43;56.97;101439.34;4993578;28;45278;-66
2023/03/15 10:55:03;;;;;;;;;4.50;3.75;;;;;12.44;56.97;101427.91;5018927;28;45345;-66
2023/03/15 10:57:33;;;;;;;;;5.50;5.00;;;;;12.51;57.10;101432.22;5019033;28;45244;-62
2023/03/15 11:00:25;;;;;;;;;11.75;9.00;;;;;12.54;56.93;101438.34;5014059;28;46309;-62
2023/03/15 11:03:00;;;;;;;;;8.50;7.00;;;;;12.56;56.51;101431.28;4999922;28;45458;-62
2023/03/15 11:05:30;;;;;;;;;7.00;5.00;;;;;12.57;56.74;101433.91;5019116;28;45460;-61
2023/03/15 11:07:58;;;;;;;;;7.00;5.50;;;;;12.59;56.66;101439.16;5018970;28;45156;-65
2023/03/15 11:10:27;;;;;;;;;10.00;7.00;;;;;12.61;56.46;101425.06;5018606;28;46611;-64
2023/03/15 11:13:11;;;;;;;;;7.00;7.00;;;;;12.66;56.41;101430.28;5018706;28;45274;-62
2023/03/15 11:15:39;;;;;;;;;5.00;5.00;;;;;12.74;56.59;101425.81;5018824;28;45668;-62
2023/03/15 11:18:04;;;;;;;;;6.50;4.75;;;;;12.82;56.42;101439.75;5071613;27;45317;-64
2023/03/15 11:20:34;;;;;;;;;4.00;3.50;;;;;12.93;56.46;101437.00;5018492;28;46126;-62